createdAt,value
2018-11-29T00:00:34.167Z,14.10
2018-11-29T00:03:03.377Z,13.93
2018-11-29T00:05:32.603Z,13.32
2018-11-29T00:08:01.719Z,13.58
2018-11-29T00:10:30.831Z,13.08
2018-11-29T00:12:59.911Z,13.05
2018-11-29T00:15:29.027Z,12.45
2018-11-29T00:17:58.213Z,13.18
2018-11-29T00:20:27.412Z,13.22
2018-11-29T00:22:56.507Z,12.10
2018-11-29T00:25:25.674Z,12.25
2018-11-29T00:27:54.799Z,12.30
2018-11-29T00:30:24.753Z,11.25
2018-11-29T00:32:54.585Z,12.23
2018-11-29T00:35:23.730Z,11.60
2018-11-29T00:37:52.828Z,11.35
2018-11-29T00:40:23.298Z,11.63
2018-11-29T00:42:52.556Z,10.78
2018-11-29T00:45:24.363Z,10.68
2018-11-29T00:47:53.520Z,10.65
2018-11-29T00:50:22.772Z,11.03
2018-11-29T00:52:52.064Z,10.50
2018-11-29T00:55:23.065Z,10.90
2018-11-29T00:57:53.042Z,10.48
2018-11-29T01:00:23.723Z,10.60
2018-11-29T01:02:52.700Z,9.85
2018-11-29T01:05:21.955Z,9.98
2018-11-29T01:07:51.080Z,10.90
2018-11-29T01:10:20.434Z,9.90
2018-11-29T01:12:49.779Z,9.73
2018-11-29T01:15:20.508Z,10.00
2018-11-29T01:17:50.251Z,9.53
2018-11-29T01:20:20.038Z,9.13
2018-11-29T01:22:49.180Z,8.78
2018-11-29T01:25:18.311Z,8.93
2018-11-29T01:27:48.199Z,9.13
2018-11-29T01:30:18.907Z,9.28
2018-11-29T01:32:47.995Z,8.53
2018-11-29T01:35:18.776Z,9.15
2018-11-29T01:37:47.927Z,8.93
2018-11-29T01:40:19.625Z,8.63
2018-11-29T01:42:50.003Z,8.70
2018-11-29T01:45:19.045Z,8.38
2018-11-29T01:47:48.188Z,8.13
2018-11-29T01:50:17.391Z,8.78
2018-11-29T01:52:46.463Z,7.95
2018-11-29T01:55:15.581Z,7.85
2018-11-29T01:57:44.687Z,7.75
2018-11-29T02:00:15.304Z,7.80
2018-11-29T02:02:44.891Z,7.58
2018-11-29T02:05:14.088Z,7.03
2018-11-29T02:07:43.342Z,7.67
2018-11-29T02:10:18.182Z,7.20
2018-11-29T02:12:47.172Z,6.70
2018-11-29T02:15:16.325Z,7.10
2018-11-29T02:17:45.425Z,7.58
2018-11-29T02:20:18.019Z,7.10
2018-11-29T02:22:47.344Z,7.20
2018-11-29T02:25:16.451Z,6.72
2018-11-29T02:27:45.537Z,6.17
2018-11-29T02:30:18.500Z,6.67
2018-11-29T02:32:47.887Z,6.62
2018-11-29T02:35:16.966Z,5.90
2018-11-29T02:37:46.113Z,6.37
2018-11-29T02:40:15.855Z,6.40
2018-11-29T02:42:45.201Z,6.62
2018-11-29T02:45:15.308Z,6.37
2018-11-29T02:47:44.458Z,6.40
2018-11-29T02:50:13.570Z,6.45
2018-11-29T02:52:42.563Z,6.00
2018-11-29T02:55:12.543Z,5.72
2018-11-29T02:57:41.867Z,5.55
2018-11-29T03:00:14.910Z,5.87
2018-11-29T03:02:44.092Z,6.17
2018-11-29T03:05:13.255Z,5.78
2018-11-29T03:07:42.335Z,5.50
2018-11-29T03:10:12.307Z,5.35
2018-11-29T03:12:41.449Z,5.10
2018-11-29T03:15:14.631Z,5.67
2018-11-29T03:17:58.311Z,5.70
2018-11-29T03:20:27.456Z,5.03
2018-11-29T03:22:56.454Z,5.15
2018-11-29T03:25:25.548Z,5.20
2018-11-29T03:27:54.648Z,5.20
2018-11-29T03:30:23.848Z,4.92
2018-11-29T03:32:52.958Z,5.45
2018-11-29T03:35:22.054Z,4.90
2018-11-29T03:37:51.132Z,4.75
2018-11-29T03:40:20.231Z,4.85
2018-11-29T03:42:49.328Z,4.33
2018-11-29T03:45:18.419Z,4.97
2018-11-29T03:47:47.619Z,4.87
2018-11-29T03:50:17.517Z,4.78
2018-11-29T03:52:46.701Z,4.60
2018-11-29T03:55:15.737Z,4.42
2018-11-29T03:57:44.851Z,3.98
2018-11-29T04:00:15.701Z,3.87
2018-11-29T04:02:45.371Z,4.15
2018-11-29T04:05:14.465Z,4.10
2018-11-29T04:07:43.794Z,3.85
2018-11-29T04:10:14.278Z,4.55
2018-11-29T04:12:43.582Z,3.92
2018-11-29T04:15:15.134Z,3.70
2018-11-29T04:17:44.280Z,3.92
2018-11-29T04:20:14.388Z,4.20
2018-11-29T04:22:43.500Z,4.10
2018-11-29T04:25:13.467Z,4.50
2018-11-29T04:27:42.608Z,3.70
2018-11-29T04:30:12.719Z,3.90
2018-11-29T04:32:41.561Z,3.85
2018-11-29T04:35:11.024Z,4.05
2018-11-29T04:37:40.276Z,3.95
2018-11-29T04:40:23.960Z,3.83
2018-11-29T04:42:53.425Z,3.58
2018-11-29T04:45:22.531Z,3.65
2018-11-29T04:47:51.684Z,3.70
2018-11-29T04:50:20.732Z,3.65
2018-11-29T04:52:49.867Z,3.55
2018-11-29T04:55:18.923Z,3.70
2018-11-29T04:57:48.026Z,3.58
2018-11-29T05:00:17.433Z,3.75
2018-11-29T05:02:46.626Z,3.30
2018-11-29T05:05:15.724Z,3.22
2018-11-29T05:07:44.803Z,3.33
2018-11-29T05:10:17.852Z,3.55
2018-11-29T05:12:47.620Z,3.55
2018-11-29T05:15:16.726Z,3.42
2018-11-29T05:17:45.843Z,2.98
2018-11-29T05:20:14.959Z,3.22
2018-11-29T05:22:44.139Z,3.15
2018-11-29T05:25:13.207Z,2.92
2018-11-29T05:27:42.327Z,3.30
2018-11-29T05:30:13.348Z,2.80
2018-11-29T05:32:42.442Z,2.90
2018-11-29T05:35:12.172Z,2.87
2018-11-29T05:37:41.277Z,2.80
2018-11-29T05:40:11.792Z,3.10
2018-11-29T05:42:40.892Z,2.80
2018-11-29T05:45:10.813Z,3.10
2018-11-29T05:47:39.903Z,2.62
2018-11-29T05:50:10.443Z,2.90
2018-11-29T05:52:39.543Z,2.90
2018-11-29T05:55:10.231Z,2.92
2018-11-29T05:57:39.371Z,3.40
2018-11-29T06:00:13.920Z,3.00
2018-11-29T06:02:43.371Z,3.12
2018-11-29T06:05:13.458Z,3.40
2018-11-29T06:07:42.620Z,2.87
2018-11-29T06:10:11.807Z,3.00
2018-11-29T06:12:40.936Z,2.85
2018-11-29T06:15:11.311Z,2.70
2018-11-29T06:17:40.666Z,3.15
2018-11-29T06:20:11.824Z,5.65
2018-11-29T06:22:41.189Z,3.45
2018-11-29T06:25:10.368Z,7.40
2018-11-29T06:27:39.455Z,8.23
2018-11-29T06:30:19.846Z,10.88
2018-11-29T06:32:49.343Z,9.40
2018-11-29T06:35:18.404Z,9.00
2018-11-29T06:37:47.571Z,7.40
2018-11-29T06:40:17.335Z,9.38
2018-11-29T06:42:46.537Z,12.65
2018-11-29T06:45:17.550Z,11.05
2018-11-29T06:47:46.679Z,12.80
2018-11-29T06:50:15.953Z,19.60
2018-11-29T06:52:45.783Z,16.93
2018-11-29T06:55:19.647Z,15.18
2018-11-29T06:57:48.787Z,17.37
2018-11-29T07:00:26.781Z,18.20
2018-11-29T07:02:55.791Z,18.40
2018-11-29T07:05:24.913Z,29.35
2018-11-29T07:07:54.087Z,23.25
2018-11-29T07:10:28.249Z,20.27
2018-11-29T07:12:57.310Z,23.80
2018-11-29T07:15:26.417Z,23.95
2018-11-29T07:17:55.571Z,22.75
2018-11-29T07:20:24.617Z,24.10
2018-11-29T07:22:53.858Z,33.20
2018-11-29T07:25:22.998Z,24.57
2018-11-29T07:27:52.151Z,32.90
2018-11-29T07:30:21.347Z,30.72
2018-11-29T07:32:50.504Z,29.98
2018-11-29T07:35:19.719Z,33.05
2018-11-29T07:37:48.895Z,38.92
2018-11-29T07:40:19.722Z,37.10
2018-11-29T07:42:50.923Z,36.48
2018-11-29T07:45:20.734Z,34.50
2018-11-29T07:47:49.784Z,36.80
2018-11-29T07:50:21.940Z,34.08
2018-11-29T07:52:51.003Z,44.80
2018-11-29T07:55:21.047Z,50.98
2018-11-29T07:57:52.116Z,38.90
2018-11-29T08:00:21.191Z,43.80
2018-11-29T08:02:50.384Z,43.68
2018-11-29T08:05:19.467Z,41.25
2018-11-29T08:07:48.977Z,47.78
2018-11-29T08:10:18.946Z,71.17
2018-11-29T08:12:48.252Z,66.45
2018-11-29T08:15:18.316Z,55.78
2018-11-29T08:17:47.444Z,43.90
2018-11-29T08:20:20.159Z,46.70
2018-11-29T08:22:49.307Z,46.48
2018-11-29T08:25:18.478Z,52.95
2018-11-29T08:27:47.598Z,72.58
2018-11-29T08:30:17.007Z,69.30
2018-11-29T08:32:46.089Z,65.22
2018-11-29T08:35:15.827Z,49.15
2018-11-29T08:37:45.731Z,50.43
2018-11-29T08:40:18.836Z,83.75
2018-11-29T08:42:47.979Z,84.62
2018-11-29T08:45:17.113Z,88.07
2018-11-29T08:47:46.267Z,93.50
2018-11-29T08:50:15.880Z,96.75
2018-11-29T08:52:45.755Z,88.97
2018-11-29T08:55:18.644Z,95.10
2018-11-29T08:57:48.392Z,91.37
2018-11-29T09:00:19.372Z,83.85
2018-11-29T09:02:48.481Z,95.85
2018-11-29T09:05:17.770Z,91.63
2018-11-29T09:07:47.643Z,56.37
2018-11-29T09:10:18.611Z,81.40
2018-11-29T09:12:47.648Z,52.43
2018-11-29T09:15:17.343Z,48.78
2018-11-29T09:17:46.428Z,73.92
2018-11-29T09:20:17.315Z,64.82
2018-11-29T09:22:46.469Z,67.87
2018-11-29T09:25:16.444Z,71.75
2018-11-29T09:27:45.649Z,71.80
2018-11-29T09:30:15.475Z,43.23
2018-11-29T09:32:45.065Z,65.15
2018-11-29T09:35:14.130Z,70.08
2018-11-29T09:37:43.216Z,63.80
2018-11-29T09:40:14.004Z,74.85
2018-11-29T09:42:43.148Z,82.30
2018-11-29T09:45:17.235Z,48.05
2018-11-29T09:47:47.998Z,65.22
2018-11-29T09:50:17.636Z,64.62
2018-11-29T09:52:46.768Z,53.17
2018-11-29T09:55:16.615Z,48.23
2018-11-29T09:57:46.208Z,62.90
2018-11-29T10:00:27.538Z,64.67
2018-11-29T10:03:02.129Z,36.05
2018-11-29T10:05:31.335Z,46.05
2018-11-29T10:08:00.425Z,68.20
2018-11-29T10:10:29.566Z,74.77
2018-11-29T10:12:58.741Z,67.53
2018-11-29T10:15:27.821Z,68.35
2018-11-29T10:17:56.927Z,41.53
2018-11-29T10:20:26.075Z,45.95
2018-11-29T10:22:55.219Z,46.77
2018-11-29T10:25:24.312Z,65.37
2018-11-29T10:27:59.131Z,51.20
2018-11-29T10:30:32.536Z,68.05
2018-11-29T10:33:01.611Z,73.47
2018-11-29T10:35:30.707Z,46.02
2018-11-29T10:37:59.839Z,47.75
2018-11-29T10:40:28.900Z,48.75
2018-11-29T10:42:57.915Z,67.78
2018-11-29T10:45:27.117Z,72.42
2018-11-29T10:47:56.625Z,76.05
2018-11-29T10:50:25.727Z,82.45
2018-11-29T10:52:54.812Z,46.33
2018-11-29T10:55:23.987Z,55.40
2018-11-29T10:57:53.112Z,49.00
2018-11-29T11:00:28.144Z,48.48
2018-11-29T11:03:32.484Z,46.37
2018-11-29T11:06:01.693Z,49.45
2018-11-29T11:08:30.824Z,47.90
2018-11-29T11:11:04.001Z,48.68
2018-11-29T11:13:33.164Z,45.80
2018-11-29T11:16:02.237Z,40.55
2018-11-29T11:18:31.329Z,43.23
2018-11-29T11:21:00.471Z,46.60
2018-11-29T11:23:29.516Z,45.12
2018-11-29T11:25:58.748Z,45.33
2018-11-29T11:28:27.816Z,44.23
2018-11-29T11:30:57.855Z,41.28
2018-11-29T11:33:26.952Z,41.60
2018-11-29T11:35:56.001Z,41.45
2018-11-29T11:38:25.144Z,39.83
2018-11-29T11:40:54.218Z,39.18
2018-11-29T11:43:23.315Z,40.20
2018-11-29T11:45:52.436Z,39.13
2018-11-29T11:48:21.605Z,40.48
2018-11-29T11:50:50.920Z,37.75
2018-11-29T11:53:20.013Z,38.30
2018-11-29T11:55:53.584Z,36.38
2018-11-29T11:58:18.203Z,32.95
2018-11-29T12:00:47.244Z,35.17
2018-11-29T12:03:16.969Z,33.08
2018-11-29T12:05:46.027Z,30.40
2018-11-29T12:08:15.019Z,32.13
2018-11-29T12:10:44.632Z,50.17
2018-11-29T12:13:13.735Z,65.10
2018-11-29T12:15:42.905Z,68.75
2018-11-29T12:18:12.933Z,72.50
2018-11-29T12:20:41.985Z,49.15
2018-11-29T12:23:11.134Z,42.53
2018-11-29T12:25:40.204Z,45.05
2018-11-29T12:28:09.291Z,73.22
2018-11-29T12:30:42.727Z,65.85
2018-11-29T12:33:11.827Z,67.47
2018-11-29T12:35:40.941Z,75.57
2018-11-29T12:38:09.989Z,73.85
2018-11-29T12:40:39.088Z,79.85
2018-11-29T12:43:08.291Z,75.75
2018-11-29T12:45:37.395Z,78.65
2018-11-29T12:48:06.487Z,50.52
2018-11-29T12:50:38.068Z,43.85
2018-11-29T12:53:07.844Z,74.42
2018-11-29T12:55:39.763Z,77.65
2018-11-29T12:58:08.804Z,81.57
2018-11-29T13:00:37.900Z,91.05
2018-11-29T13:05:38.043Z,58.23
2018-11-29T13:08:07.719Z,52.38
2018-11-29T13:10:36.879Z,84.28
2018-11-29T13:13:06.659Z,83.17
2018-11-29T13:15:35.978Z,94.62
2018-11-29T13:18:06.663Z,65.47
2018-11-29T13:20:35.852Z,54.53
2018-11-29T13:23:04.909Z,59.88
2018-11-29T13:25:34.087Z,88.45
2018-11-29T13:28:03.434Z,90.53
2018-11-29T13:30:32.487Z,98.72
2018-11-29T13:33:01.741Z,104.10
2018-11-29T13:35:33.140Z,63.28
2018-11-29T13:38:07.269Z,59.45
2018-11-29T13:40:36.578Z,84.50
2018-11-29T13:43:05.772Z,93.55
2018-11-29T13:45:34.804Z,100.12
2018-11-29T13:48:03.960Z,104.45
2018-11-29T13:50:33.104Z,105.10
2018-11-29T13:53:02.530Z,73.35
2018-11-29T13:55:31.966Z,79.70
2018-11-29T13:58:01.971Z,100.65
2018-11-29T14:00:31.277Z,103.80
2018-11-29T14:03:03.227Z,111.32
2018-11-29T14:05:32.553Z,112.35
2018-11-29T14:08:01.966Z,79.95
2018-11-29T14:10:31.357Z,75.32
2018-11-29T14:13:00.783Z,109.75
2018-11-29T14:15:30.375Z,113.37
2018-11-29T14:17:59.794Z,111.28
2018-11-29T14:20:29.293Z,117.57
2018-11-29T14:22:58.686Z,118.00
2018-11-29T14:25:28.713Z,82.45
2018-11-29T14:27:58.733Z,93.20
2018-11-29T14:30:29.674Z,122.22
2018-11-29T14:33:00.042Z,121.82
2018-11-29T14:35:29.637Z,122.95
2018-11-29T14:37:59.052Z,124.82
2018-11-29T14:40:29.668Z,96.80
2018-11-29T14:43:00.206Z,100.22
2018-11-29T14:45:29.701Z,96.25
2018-11-29T14:47:59.115Z,90.60
2018-11-29T14:50:33.937Z,87.33
2018-11-29T14:53:03.414Z,88.42
2018-11-29T14:55:33.531Z,88.15
2018-11-29T14:58:03.295Z,69.80
2018-11-29T15:00:33.318Z,85.38
2018-11-29T15:03:05.268Z,96.35
2018-11-29T15:05:34.607Z,78.17
2018-11-29T15:08:03.940Z,85.65
2018-11-29T15:10:33.324Z,79.12
2018-11-29T15:13:02.621Z,80.57
2018-11-29T15:15:32.171Z,79.07
2018-11-29T15:18:01.448Z,85.47
2018-11-29T15:20:34.678Z,90.07
2018-11-29T15:23:03.934Z,85.00
2018-11-29T15:25:33.264Z,86.75
2018-11-29T15:28:02.644Z,96.90
2018-11-29T15:30:31.850Z,93.78
2018-11-29T15:33:01.294Z,111.70
2018-11-29T15:35:30.778Z,94.42
2018-11-29T15:38:00.276Z,92.02
2018-11-29T15:40:30.356Z,119.13
2018-11-29T15:43:00.389Z,107.45
2018-11-29T15:45:29.987Z,122.80
2018-11-29T15:48:01.061Z,120.97
2018-11-29T15:50:30.625Z,118.80
2018-11-29T15:53:00.101Z,86.28
2018-11-29T15:55:29.547Z,87.82
2018-11-29T15:57:58.850Z,83.52
2018-11-29T16:00:29.095Z,97.92
2018-11-29T16:03:01.251Z,106.47
2018-11-29T16:05:30.663Z,93.72
2018-11-29T16:08:00.058Z,104.27
2018-11-29T16:10:29.453Z,93.22
2018-11-29T16:12:58.788Z,109.63
2018-11-29T16:15:28.338Z,108.30
2018-11-29T16:17:57.668Z,102.00
2018-11-29T16:20:28.952Z,112.20
2018-11-29T16:22:58.351Z,112.83
2018-11-29T16:25:27.532Z,97.30
2018-11-29T16:27:56.929Z,107.75
2018-11-29T16:30:48.348Z,90.42
2018-11-29T16:33:22.040Z,95.22
2018-11-29T16:35:51.376Z,108.63
2018-11-29T16:38:20.860Z,117.05
2018-11-29T16:40:50.205Z,108.95
2018-11-29T16:43:19.566Z,121.13
2018-11-29T16:45:48.894Z,136.47
2018-11-29T16:48:18.351Z,110.57
2018-11-29T16:50:47.661Z,128.75
2018-11-29T16:53:17.315Z,116.50
2018-11-29T16:55:46.800Z,102.92
2018-11-29T16:58:17.825Z,117.13
2018-11-29T17:00:47.222Z,129.50
2018-11-29T17:03:16.721Z,136.32
2018-11-29T17:05:46.134Z,111.05
2018-11-29T17:08:15.437Z,113.70
2018-11-29T17:10:44.650Z,144.55
2018-11-29T17:13:15.458Z,138.18
2018-11-29T17:15:44.833Z,146.25
2018-11-29T17:18:14.478Z,138.05
2018-11-29T17:20:43.959Z,151.00
2018-11-29T17:23:13.629Z,121.13
2018-11-29T17:25:43.054Z,109.78
2018-11-29T17:28:12.438Z,138.75
2018-11-29T17:30:42.012Z,135.72
2018-11-29T17:33:11.336Z,152.17
2018-11-29T17:35:40.843Z,130.03
2018-11-29T17:38:10.169Z,113.75
2018-11-29T17:40:39.925Z,119.05
2018-11-29T17:43:09.387Z,120.37
2018-11-29T17:45:39.010Z,124.02
2018-11-29T17:48:10.356Z,121.10
2018-11-29T17:50:40.843Z,122.65
2018-11-29T17:53:10.176Z,127.25
2018-11-29T17:55:39.597Z,122.22
2018-11-29T17:58:11.769Z,110.75
2018-11-29T18:00:41.130Z,120.65
2018-11-29T18:03:10.748Z,114.40
2018-11-29T18:05:40.208Z,115.22
2018-11-29T18:08:11.014Z,103.22
2018-11-29T18:10:41.222Z,96.20
2018-11-29T18:13:15.806Z,95.35
2018-11-29T18:15:45.300Z,94.65
2018-11-29T18:18:14.807Z,91.02
2018-11-29T18:20:44.216Z,90.55
2018-11-29T18:23:13.603Z,87.92
2018-11-29T18:25:43.223Z,87.80
2018-11-29T18:28:13.142Z,87.85
2018-11-29T18:30:42.671Z,84.10
2018-11-29T18:33:13.321Z,86.10
2018-11-29T18:35:42.755Z,83.82
2018-11-29T18:38:12.176Z,79.30
2018-11-29T18:40:41.786Z,77.67
2018-11-29T18:43:11.786Z,78.22
2018-11-29T18:45:41.296Z,79.00
2018-11-29T18:48:11.211Z,77.05
2018-11-29T18:50:40.896Z,75.32
2018-11-29T18:53:10.368Z,75.67
2018-11-29T18:55:39.613Z,74.82
2018-11-29T18:58:09.077Z,70.42
2018-11-29T19:00:38.817Z,69.67
2018-11-29T19:03:08.869Z,72.75
2018-11-29T19:05:38.092Z,69.20
2018-11-29T19:08:09.627Z,67.67
2018-11-29T19:10:39.221Z,64.77
2018-11-29T19:13:11.530Z,63.75
2018-11-29T19:15:41.153Z,61.95
2018-11-29T19:18:11.071Z,61.92
2018-11-29T19:20:40.482Z,60.80
2018-11-29T19:23:09.783Z,60.95
2018-11-29T19:25:39.311Z,61.50
2018-11-29T19:28:08.702Z,58.65
2018-11-29T19:30:38.653Z,59.88
2018-11-29T19:33:17.555Z,56.48
2018-11-29T19:35:46.646Z,56.58
2018-11-29T19:38:16.114Z,54.33
2018-11-29T19:40:45.686Z,56.18
2018-11-29T19:43:15.159Z,53.85
2018-11-29T19:45:44.436Z,53.70
2018-11-29T19:48:13.843Z,52.58
2018-11-29T19:50:43.180Z,51.45
2018-11-29T19:53:17.169Z,49.90
2018-11-29T19:55:46.771Z,48.10
2018-11-29T19:58:16.206Z,47.43
2018-11-29T20:00:45.706Z,46.68
2018-11-29T20:03:15.549Z,47.03
2018-11-29T20:05:45.050Z,44.77
2018-11-29T20:08:14.394Z,43.75
2018-11-29T20:10:43.883Z,44.95
2018-11-29T20:13:15.102Z,42.83
2018-11-29T20:15:45.920Z,43.55
2018-11-29T20:18:15.546Z,42.53
2018-11-29T20:20:45.037Z,41.75
2018-11-29T20:23:15.217Z,40.25
2018-11-29T20:25:45.489Z,41.23
2018-11-29T20:28:15.149Z,40.40
2018-11-29T20:30:44.367Z,39.33
2018-11-29T20:33:13.810Z,36.95
2018-11-29T20:35:43.189Z,37.17
2018-11-29T20:38:12.599Z,36.68
2018-11-29T20:40:43.174Z,34.20
2018-11-29T20:43:12.641Z,35.55
2018-11-29T20:45:49.014Z,35.73
2018-11-29T20:48:19.796Z,34.15
2018-11-29T20:50:49.523Z,33.30
2018-11-29T20:53:20.836Z,33.23
2018-11-29T20:55:50.204Z,32.98
2018-11-29T20:58:19.569Z,32.03
2018-11-29T21:00:48.883Z,31.15
2018-11-29T21:03:18.196Z,29.98
2018-11-29T21:05:47.590Z,29.48
2018-11-29T21:08:16.874Z,31.10
2018-11-29T21:10:46.182Z,29.50
2018-11-29T21:13:15.531Z,29.45
2018-11-29T21:15:45.005Z,28.20
2018-11-29T21:18:15.259Z,30.97
2018-11-29T21:20:44.946Z,29.25
2018-11-29T21:23:16.325Z,27.58
2018-11-29T21:25:46.185Z,27.75
2018-11-29T21:28:15.501Z,27.02
2018-11-29T21:30:44.983Z,25.37
2018-11-29T21:33:14.503Z,26.37
2018-11-29T21:35:43.850Z,26.25
2018-11-29T21:38:20.369Z,25.43
2018-11-29T21:40:55.459Z,25.75
2018-11-29T21:43:24.861Z,24.18
2018-11-29T21:45:54.317Z,24.95
2018-11-29T21:48:23.711Z,23.87
2018-11-29T21:50:53.037Z,23.77
2018-11-29T21:53:22.348Z,26.15
2018-11-29T21:55:51.830Z,23.57
2018-11-29T21:58:21.038Z,21.75
2018-11-29T22:00:50.329Z,22.22
2018-11-29T22:03:19.784Z,21.73
2018-11-29T22:05:49.262Z,21.87
2018-11-29T22:08:18.634Z,22.80
2018-11-29T22:10:47.936Z,21.62
2018-11-29T22:13:17.145Z,21.30
2018-11-29T22:15:46.464Z,20.52
2018-11-29T22:18:19.721Z,21.40
2018-11-29T22:20:50.337Z,19.77
2018-11-29T22:23:19.676Z,21.80
2018-11-29T22:25:49.031Z,21.40
2018-11-29T22:28:18.340Z,19.27
2018-11-29T22:30:47.656Z,19.02
2018-11-29T22:33:17.014Z,18.20
2018-11-29T22:35:46.504Z,18.40
2018-11-29T22:38:16.021Z,17.75
2018-11-29T22:40:45.439Z,18.02
2018-11-29T22:43:14.954Z,18.37
2018-11-29T22:45:44.316Z,18.55
2018-11-29T22:48:13.630Z,16.95
2018-11-29T22:50:43.099Z,16.60
2018-11-29T22:53:12.395Z,16.87
2018-11-29T22:55:41.731Z,18.15
2018-11-29T22:58:11.000Z,17.57
2018-11-29T23:00:45.499Z,16.52
2018-11-29T23:03:14.847Z,15.32
2018-11-29T23:05:44.137Z,16.02
2018-11-29T23:08:13.441Z,15.50
2018-11-29T23:10:42.853Z,16.00
2018-11-29T23:13:12.073Z,15.63
2018-11-29T23:15:41.480Z,15.15
2018-11-29T23:18:10.861Z,15.63
2018-11-29T23:20:40.167Z,15.03
2018-11-29T23:23:09.509Z,15.23
2018-11-29T23:25:38.961Z,13.93
2018-11-29T23:28:08.712Z,15.15
2018-11-29T23:30:38.074Z,14.53
2018-11-29T23:33:07.378Z,13.78
2018-11-29T23:35:36.577Z,13.60
2018-11-29T23:38:06.106Z,13.22
2018-11-29T23:40:35.496Z,14.20
2018-11-29T23:43:04.801Z,12.68
2018-11-29T23:45:34.071Z,13.38
2018-11-29T23:48:03.401Z,13.75
2018-11-29T23:50:32.694Z,13.40
2018-11-29T23:53:01.993Z,11.80
2018-11-29T23:55:31.708Z,12.35
2018-11-29T23:58:01.028Z,11.95
